createdAt,value
2022-12-18T00:01:07.222Z,21.60
2022-12-18T00:03:37.453Z,20.48
2022-12-18T00:06:04.612Z,14.87
2022-12-18T00:08:31.255Z,20.10
2022-12-18T00:11:06.943Z,20.25
2022-12-18T00:13:34.348Z,20.38
2022-12-18T00:16:06.405Z,18.88
2022-12-18T00:18:33.703Z,19.55
2022-12-18T00:21:02.105Z,20.88
2022-12-18T00:23:29.417Z,18.77
2022-12-18T00:25:59.658Z,20.40
2022-12-18T00:28:26.238Z,20.08
2022-12-18T00:31:10.133Z,18.15
2022-12-18T00:33:37.844Z,19.38
2022-12-18T00:36:13.772Z,18.67
2022-12-18T00:38:41.280Z,19.35
2022-12-18T00:41:10.164Z,18.30
2022-12-18T00:43:38.546Z,20.02
2022-12-18T00:46:05.831Z,19.55
2022-12-18T00:48:33.338Z,19.35
2022-12-18T00:50:59.888Z,19.10
2022-12-18T00:53:26.468Z,19.30
2022-12-18T00:55:53.004Z,19.15
2022-12-18T00:58:19.897Z,18.45
2022-12-18T01:00:46.508Z,18.17
2022-12-18T01:03:16.191Z,17.85
2022-12-18T01:05:43.226Z,18.30
2022-12-18T01:08:09.971Z,20.23
2022-12-18T01:10:36.691Z,17.83
2022-12-18T01:13:03.308Z,18.58
2022-12-18T01:15:29.882Z,18.50
2022-12-18T01:17:56.408Z,19.75
2022-12-18T01:20:23.225Z,18.33
2022-12-18T01:22:49.786Z,21.02
2022-12-18T01:25:16.419Z,20.10
2022-12-18T01:27:43.155Z,19.70
2022-12-18T01:30:10.184Z,20.13
2022-12-18T01:32:36.733Z,18.70
2022-12-18T01:35:03.453Z,19.30
2022-12-18T01:37:30.082Z,19.33
2022-12-18T01:39:56.644Z,18.55
2022-12-18T01:42:23.641Z,18.58
2022-12-18T01:45:02.281Z,18.98
2022-12-18T01:47:34.733Z,18.08
2022-12-18T01:50:07.200Z,17.80
2022-12-18T01:52:35.483Z,18.23
2022-12-18T01:55:04.060Z,18.45
2022-12-18T01:57:30.885Z,18.63
2022-12-18T02:00:02.598Z,18.13
2022-12-18T02:02:31.374Z,17.65
2022-12-18T02:05:00.193Z,18.30
2022-12-18T02:07:32.869Z,19.58
2022-12-18T02:10:28.365Z,18.52
2022-12-18T02:13:14.771Z,17.80
2022-12-18T02:16:12.004Z,17.52
2022-12-18T02:18:44.233Z,17.95
2022-12-18T02:21:47.117Z,18.45
2022-12-18T02:24:36.156Z,17.55
2022-12-18T02:27:07.613Z,18.85
2022-12-18T02:29:41.462Z,17.73
2022-12-18T02:32:14.983Z,18.55
2022-12-18T02:34:43.601Z,19.27
2022-12-18T02:37:14.964Z,18.30
2022-12-18T02:39:44.434Z,18.48
2022-12-18T02:42:12.313Z,18.52
2022-12-18T02:44:46.767Z,18.20
2022-12-18T02:47:14.859Z,17.52
2022-12-18T02:49:49.890Z,19.92
2022-12-18T02:52:38.280Z,18.38
2022-12-18T02:55:27.604Z,17.80
2022-12-18T02:58:05.600Z,18.88
2022-12-18T03:00:36.653Z,17.90
2022-12-18T03:03:12.452Z,17.08
2022-12-18T03:05:44.336Z,18.42
2022-12-18T03:08:20.171Z,18.70
2022-12-18T03:10:54.549Z,19.05
2022-12-18T03:13:44.193Z,17.48
2022-12-18T03:16:16.228Z,18.77
2022-12-18T03:18:51.236Z,18.95
2022-12-18T03:21:23.279Z,18.58
2022-12-18T03:23:52.650Z,16.95
2022-12-18T03:26:23.332Z,18.80
2022-12-18T03:28:58.589Z,20.10
2022-12-18T03:31:28.782Z,18.55
2022-12-18T03:33:59.940Z,18.95
2022-12-18T03:36:27.417Z,18.48
2022-12-18T03:38:54.073Z,18.50
2022-12-18T03:41:39.014Z,17.88
2022-12-18T03:44:11.576Z,18.52
2022-12-18T03:46:56.199Z,19.13
2022-12-18T03:49:35.651Z,17.52
2022-12-18T03:52:10.777Z,19.42
2022-12-18T03:54:38.379Z,19.80
2022-12-18T03:57:12.682Z,18.73
2022-12-18T03:59:41.039Z,17.25
2022-12-18T04:02:09.215Z,18.85
2022-12-18T04:04:38.398Z,18.88
2022-12-18T04:07:06.369Z,17.58
2022-12-18T04:09:35.246Z,19.00
2022-12-18T04:12:01.993Z,20.10
2022-12-18T04:14:28.565Z,20.55
2022-12-18T04:16:55.096Z,22.25
2022-12-18T04:19:21.754Z,21.98
2022-12-18T04:21:48.273Z,22.50
2022-12-18T04:24:14.786Z,23.83
2022-12-18T04:26:41.328Z,24.63
2022-12-18T04:29:07.886Z,25.63
2022-12-18T04:31:34.540Z,26.13
2022-12-18T04:34:01.412Z,30.95
2022-12-18T04:36:28.433Z,31.73
2022-12-18T04:38:54.944Z,31.20
2022-12-18T04:41:21.883Z,31.60
2022-12-18T04:43:48.411Z,31.83
2022-12-18T04:46:15.269Z,32.10
2022-12-18T04:48:41.944Z,30.08
2022-12-18T04:51:08.665Z,31.77
2022-12-18T04:53:35.286Z,29.02
2022-12-18T04:56:10.885Z,28.58
2022-12-18T04:58:38.473Z,28.05
2022-12-18T05:01:05.572Z,28.63
2022-12-18T05:03:32.569Z,28.17
2022-12-18T05:05:59.120Z,29.95
2022-12-18T05:08:25.712Z,28.95
2022-12-18T05:11:10.019Z,147.27
2022-12-18T05:13:37.716Z,102.78
2022-12-18T05:16:05.778Z,121.30
2022-12-18T05:18:32.754Z,86.13
2022-12-18T05:20:59.434Z,66.43
2022-12-18T05:23:27.091Z,119.80
2022-12-18T05:26:01.193Z,66.55
2022-12-18T05:28:30.665Z,95.38
2022-12-18T05:30:59.812Z,57.70
2022-12-18T05:33:28.479Z,52.28
2022-12-18T05:35:56.835Z,58.58
2022-12-18T05:38:25.458Z,55.15
2022-12-18T05:40:53.384Z,47.15
2022-12-18T05:43:22.717Z,49.22
2022-12-18T05:45:50.309Z,61.67
2022-12-18T05:48:17.900Z,63.17
2022-12-18T05:50:48.975Z,65.35
2022-12-18T05:53:20.307Z,55.97
2022-12-18T05:55:47.554Z,57.70
2022-12-18T05:58:15.388Z,53.92
2022-12-18T06:00:44.201Z,46.70
2022-12-18T06:03:12.189Z,47.22
2022-12-18T06:05:41.551Z,38.83
2022-12-18T06:08:08.826Z,44.47
2022-12-18T06:10:36.121Z,42.40
2022-12-18T06:13:02.740Z,42.25
2022-12-18T06:15:29.293Z,38.13
2022-12-18T06:17:56.010Z,39.38
2022-12-18T06:20:22.662Z,39.92
2022-12-18T06:22:49.273Z,35.08
2022-12-18T06:25:16.546Z,34.33
2022-12-18T06:27:43.169Z,31.55
2022-12-18T06:30:11.458Z,31.80
2022-12-18T06:32:38.140Z,25.75
2022-12-18T06:35:05.091Z,26.45
2022-12-18T06:37:32.792Z,25.88
2022-12-18T06:39:59.449Z,27.30
2022-12-18T06:42:26.245Z,26.52
2022-12-18T06:44:52.941Z,26.52
2022-12-18T06:47:19.804Z,25.60
2022-12-18T06:49:46.341Z,27.02
2022-12-18T06:52:13.042Z,29.40
2022-12-18T06:54:39.567Z,29.40
2022-12-18T06:57:06.167Z,29.60
2022-12-18T06:59:32.724Z,28.02
2022-12-18T07:01:59.406Z,29.73
2022-12-18T07:04:31.338Z,29.77
2022-12-18T07:06:58.560Z,29.02
2022-12-18T07:09:25.634Z,26.83
2022-12-18T07:11:53.069Z,28.63
2022-12-18T07:14:19.693Z,29.55
2022-12-18T07:16:46.266Z,30.25
2022-12-18T07:19:12.897Z,31.55
2022-12-18T07:21:39.629Z,29.38
2022-12-18T07:24:06.941Z,29.75
2022-12-18T07:26:33.514Z,30.15
2022-12-18T07:29:00.214Z,30.23
2022-12-18T07:31:27.190Z,32.33
2022-12-18T07:33:54.590Z,30.90
2022-12-18T07:36:24.215Z,30.80
2022-12-18T07:38:52.698Z,31.83
2022-12-18T07:41:19.966Z,31.58
2022-12-18T07:43:47.164Z,31.83
2022-12-18T07:46:15.128Z,33.15
2022-12-18T07:48:43.413Z,32.28
2022-12-18T07:51:13.492Z,32.25
2022-12-18T07:53:41.309Z,31.85
2022-12-18T07:56:28.302Z,31.40
2022-12-18T07:58:56.113Z,31.80
2022-12-18T08:01:22.828Z,31.25
2022-12-18T08:03:50.144Z,31.75
2022-12-18T08:06:18.992Z,32.25
2022-12-18T08:08:45.576Z,31.75
2022-12-18T08:11:12.147Z,33.60
2022-12-18T08:13:39.041Z,31.73
2022-12-18T08:16:08.347Z,32.05
2022-12-18T08:18:36.820Z,30.00
2022-12-18T08:21:24.035Z,33.90
2022-12-18T08:23:52.825Z,34.92
2022-12-18T08:26:21.070Z,35.45
2022-12-18T08:28:48.710Z,34.65
2022-12-18T08:31:16.295Z,40.20
2022-12-18T08:33:43.697Z,39.15
2022-12-18T08:36:11.153Z,37.33
2022-12-18T08:38:38.312Z,38.20
2022-12-18T08:41:07.218Z,36.15
2022-12-18T08:43:52.794Z,38.28
2022-12-18T08:46:21.237Z,35.85
2022-12-18T08:48:48.567Z,33.45
2022-12-18T08:51:18.156Z,34.75
2022-12-18T08:53:48.230Z,38.58
2022-12-18T08:56:15.550Z,32.80
2022-12-18T08:58:42.667Z,34.28
2022-12-18T09:01:11.714Z,32.13
2022-12-18T09:03:39.288Z,34.05
2022-12-18T09:06:06.990Z,34.92
2022-12-18T09:08:37.613Z,33.10
2022-12-18T09:11:04.458Z,33.20
2022-12-18T09:13:31.013Z,34.10
2022-12-18T09:15:57.539Z,34.05
2022-12-18T09:18:25.375Z,31.23
2022-12-18T09:20:53.773Z,33.63
2022-12-18T09:23:21.338Z,33.25
2022-12-18T09:25:48.261Z,31.55
2022-12-18T09:28:19.213Z,32.22
2022-12-18T09:30:50.360Z,33.75
2022-12-18T09:33:18.166Z,32.38
2022-12-18T09:35:46.229Z,32.50
2022-12-18T09:38:16.838Z,32.78
2022-12-18T09:40:50.428Z,31.63
2022-12-18T09:43:38.483Z,34.05
2022-12-18T09:46:08.870Z,33.53
2022-12-18T09:48:45.800Z,32.50
2022-12-18T09:51:30.300Z,31.77
2022-12-18T09:54:04.030Z,32.20
2022-12-18T09:56:36.092Z,32.67
2022-12-18T09:59:04.499Z,36.70
2022-12-18T10:01:41.475Z,33.97
2022-12-18T10:04:11.014Z,33.10
2022-12-18T10:06:37.731Z,31.98
2022-12-18T10:09:19.466Z,31.08
2022-12-18T10:14:28.541Z,31.85
2022-12-18T10:17:25.216Z,31.90
2022-12-18T10:19:57.354Z,30.85
2022-12-18T10:22:37.591Z,31.63
2022-12-18T10:25:16.693Z,33.92
2022-12-18T10:27:43.574Z,33.40
2022-12-18T10:30:18.570Z,32.72
2022-12-18T10:32:45.260Z,33.88
2022-12-18T10:35:29.064Z,34.00
2022-12-18T10:38:01.581Z,33.95
2022-12-18T10:40:28.475Z,34.00
2022-12-18T10:43:14.205Z,33.95
2022-12-18T10:45:41.199Z,32.78
2022-12-18T10:48:22.646Z,33.85
2022-12-18T10:53:42.614Z,37.08
2022-12-18T10:56:09.936Z,35.90
2022-12-18T10:58:39.833Z,36.17
2022-12-18T11:01:11.713Z,37.45
2022-12-18T11:03:44.524Z,37.53
2022-12-18T11:06:16.788Z,35.70
2022-12-18T11:08:57.896Z,38.55
2022-12-18T11:11:25.844Z,37.05
2022-12-18T11:13:58.560Z,36.85
2022-12-18T11:16:25.383Z,36.53
2022-12-18T11:18:52.119Z,37.75
2022-12-18T11:21:18.683Z,38.85
2022-12-18T11:23:52.643Z,39.35
2022-12-18T11:26:19.992Z,41.83
2022-12-18T11:29:08.096Z,39.40
2022-12-18T11:31:34.817Z,36.13
2022-12-18T11:34:29.108Z,37.25
2022-12-18T11:36:58.606Z,36.38
2022-12-18T11:39:46.638Z,36.08
2022-12-18T11:42:34.193Z,36.47
2022-12-18T11:45:16.132Z,35.78
2022-12-18T11:47:42.774Z,38.60
2022-12-18T11:50:17.094Z,36.45
2022-12-18T11:52:43.854Z,36.35
2022-12-18T11:55:32.317Z,37.40
2022-12-18T11:58:53.485Z,39.53
2022-12-18T12:01:47.392Z,66.65
2022-12-18T12:04:32.589Z,50.53
2022-12-18T12:07:10.976Z,52.38
2022-12-18T12:09:49.280Z,100.32
2022-12-18T12:12:23.123Z,60.33
2022-12-18T12:15:32.524Z,43.08
2022-12-18T12:18:26.705Z,40.42
2022-12-18T12:21:11.228Z,36.03
2022-12-18T12:23:53.042Z,37.00
2022-12-18T12:29:43.849Z,38.78
2022-12-18T12:32:52.163Z,38.72
2022-12-18T12:35:45.319Z,38.00
2022-12-18T12:38:21.086Z,36.03
2022-12-18T12:41:03.349Z,37.38
2022-12-18T12:43:50.463Z,33.65
2022-12-18T12:46:22.375Z,36.70
2022-12-18T12:48:58.736Z,36.15
2022-12-18T12:51:33.102Z,34.75
2022-12-18T12:54:02.350Z,36.50
2022-12-18T12:56:43.380Z,37.97
2022-12-18T12:59:47.427Z,36.07
2022-12-18T13:02:51.561Z,38.20
2022-12-18T13:05:31.368Z,36.13
2022-12-18T13:08:07.176Z,47.90
2022-12-18T13:10:43.457Z,52.55
2022-12-18T13:13:17.344Z,43.20
2022-12-18T13:16:06.170Z,38.58
2022-12-18T13:18:34.997Z,38.63
2022-12-18T13:21:03.743Z,51.58
2022-12-18T13:23:40.316Z,37.80
2022-12-18T13:26:07.544Z,36.00
2022-12-18T13:28:34.832Z,35.90
2022-12-18T13:31:02.592Z,41.25
2022-12-18T13:33:29.745Z,39.30
2022-12-18T13:36:17.395Z,38.38
2022-12-18T13:38:45.715Z,38.67
2022-12-18T13:41:18.564Z,36.70
2022-12-18T13:44:11.362Z,38.03
2022-12-18T13:46:45.578Z,38.30
2022-12-18T13:49:15.269Z,36.10
2022-12-18T13:51:54.542Z,44.22
2022-12-18T13:54:40.087Z,40.28
2022-12-18T13:57:32.508Z,37.20
2022-12-18T14:00:13.150Z,39.67
2022-12-18T14:02:40.672Z,47.83
2022-12-18T14:05:25.083Z,55.10
2022-12-18T14:07:53.619Z,58.85
2022-12-18T14:10:42.605Z,38.53
2022-12-18T14:13:12.263Z,41.75
2022-12-18T14:15:48.568Z,37.92
2022-12-18T14:18:21.059Z,38.92
2022-12-18T14:20:52.569Z,36.92
2022-12-18T14:23:36.357Z,37.28
2022-12-18T14:26:20.897Z,35.53
2022-12-18T14:28:47.601Z,34.65
2022-12-18T14:31:27.503Z,36.58
2022-12-18T14:33:55.116Z,36.45
2022-12-18T14:36:24.885Z,36.33
2022-12-18T14:38:56.933Z,35.15
2022-12-18T14:41:24.977Z,34.42
2022-12-18T14:43:53.500Z,36.70
2022-12-18T14:46:44.003Z,36.28
2022-12-18T14:49:31.048Z,38.75
2022-12-18T14:52:07.304Z,43.45
2022-12-18T14:54:37.949Z,62.22
2022-12-18T14:57:24.388Z,40.95
2022-12-18T14:59:51.897Z,37.00
2022-12-18T15:02:27.896Z,48.08
2022-12-18T15:05:13.486Z,38.28
2022-12-18T15:07:51.440Z,36.60
2022-12-18T15:10:24.369Z,34.92
2022-12-18T15:13:09.400Z,37.67
2022-12-18T15:15:38.908Z,35.78
2022-12-18T15:18:18.759Z,33.83
2022-12-18T15:20:49.695Z,35.03
2022-12-18T15:23:24.704Z,33.13
2022-12-18T15:26:12.887Z,38.92
2022-12-18T15:28:56.505Z,33.42
2022-12-18T15:31:32.442Z,36.25
2022-12-18T15:34:00.272Z,34.25
2022-12-18T15:36:30.678Z,35.10
2022-12-18T15:39:04.786Z,33.72
2022-12-18T15:41:36.922Z,33.88
2022-12-18T15:44:21.920Z,33.67
2022-12-18T15:46:48.460Z,35.17
2022-12-18T15:49:15.036Z,34.20
2022-12-18T15:51:41.745Z,33.60
2022-12-18T15:54:14.097Z,34.85
2022-12-18T15:56:59.918Z,34.80
2022-12-18T15:59:27.562Z,33.10
2022-12-18T16:01:54.372Z,32.35
2022-12-18T16:04:23.354Z,33.78
2022-12-18T16:07:13.967Z,35.95
2022-12-18T16:09:37.901Z,34.00
2022-12-18T16:12:05.040Z,35.30
2022-12-18T16:14:32.815Z,37.45
2022-12-18T16:17:04.622Z,37.15
2022-12-18T16:21:59.150Z,39.67
2022-12-18T16:24:31.332Z,38.00
2022-12-18T16:27:00.400Z,41.38
2022-12-18T16:29:28.784Z,38.47
2022-12-18T16:32:00.133Z,41.58
2022-12-18T16:34:29.321Z,40.65
2022-12-18T16:37:08.374Z,40.42
2022-12-18T16:39:36.297Z,41.92
2022-12-18T16:42:20.532Z,37.10
2022-12-18T16:44:49.167Z,41.40
2022-12-18T16:47:16.498Z,44.45
2022-12-18T16:49:45.795Z,45.13
2022-12-18T16:52:12.644Z,49.67
2022-12-18T16:54:39.294Z,47.38
2022-12-18T16:57:05.873Z,42.97
2022-12-18T16:59:35.809Z,41.88
2022-12-18T17:02:06.165Z,44.83
2022-12-18T17:04:33.722Z,44.63
2022-12-18T17:07:00.277Z,41.78
2022-12-18T17:09:26.860Z,48.35
2022-12-18T17:11:54.587Z,45.13
2022-12-18T17:14:24.537Z,48.38
2022-12-18T17:17:19.364Z,45.22
2022-12-18T17:19:38.843Z,40.65
2022-12-18T17:22:05.633Z,42.28
2022-12-18T17:24:35.033Z,43.33
2022-12-18T17:27:02.961Z,46.72
2022-12-18T17:29:29.554Z,53.55
2022-12-18T17:31:56.073Z,56.63
2022-12-18T17:34:24.356Z,56.88
2022-12-18T17:36:51.108Z,56.20
2022-12-18T17:39:19.761Z,53.00
2022-12-18T17:41:46.836Z,51.33
2022-12-18T17:44:13.813Z,52.13
2022-12-18T17:46:40.800Z,49.63
2022-12-18T17:49:07.525Z,53.78
2022-12-18T17:51:34.224Z,53.90
2022-12-18T17:54:01.160Z,56.53
2022-12-18T17:56:27.839Z,57.65
2022-12-18T17:58:54.520Z,53.58
2022-12-18T18:01:24.482Z,52.92
2022-12-18T18:03:52.884Z,56.15
2022-12-18T18:06:21.159Z,55.63
2022-12-18T18:08:48.413Z,53.72
2022-12-18T18:11:36.871Z,52.70
2022-12-18T18:14:07.886Z,51.35
2022-12-18T18:16:41.246Z,48.58
2022-12-18T18:19:16.820Z,48.40
2022-12-18T18:21:45.223Z,53.35
2022-12-18T18:24:13.526Z,49.05
2022-12-18T18:26:41.628Z,52.22
2022-12-18T18:29:09.752Z,46.03
2022-12-18T18:31:40.894Z,50.65
2022-12-18T18:34:10.257Z,51.85
2022-12-18T18:36:36.819Z,54.67
2022-12-18T18:39:03.420Z,50.38
2022-12-18T18:41:30.636Z,44.42
2022-12-18T18:43:58.468Z,44.55
2022-12-18T18:46:26.345Z,43.47
2022-12-18T18:48:53.255Z,43.53
2022-12-18T18:51:21.708Z,43.20
2022-12-18T18:53:52.193Z,42.55
2022-12-18T18:59:08.649Z,43.33
2022-12-18T19:01:35.384Z,41.58
2022-12-18T19:04:05.083Z,40.67
2022-12-18T19:06:31.718Z,40.70
2022-12-18T19:08:59.329Z,38.47
2022-12-18T19:11:45.678Z,41.72
2022-12-18T19:14:14.891Z,40.55
2022-12-18T19:16:43.501Z,41.35
2022-12-18T19:19:11.323Z,40.90
2022-12-18T19:21:38.360Z,40.92
2022-12-18T19:24:06.031Z,40.83
2022-12-18T19:26:32.650Z,40.30
2022-12-18T19:29:04.680Z,42.63
2022-12-18T19:31:35.526Z,43.60
2022-12-18T19:34:04.292Z,44.08
2022-12-18T19:36:32.384Z,46.83
2022-12-18T19:39:00.945Z,47.05
2022-12-18T19:41:30.631Z,45.40
2022-12-18T19:43:58.720Z,44.88
2022-12-18T19:46:25.489Z,43.13
2022-12-18T19:48:52.478Z,45.45
2022-12-18T19:51:26.027Z,47.45
2022-12-18T19:53:58.428Z,46.28
2022-12-18T19:56:28.481Z,48.38
2022-12-18T19:58:55.571Z,48.65
2022-12-18T20:01:24.202Z,46.70
2022-12-18T20:03:54.384Z,47.28
2022-12-18T20:06:51.582Z,49.75
2022-12-18T20:09:19.204Z,46.40
2022-12-18T20:11:46.024Z,45.90
2022-12-18T20:14:14.408Z,49.45
2022-12-18T20:16:43.590Z,47.73
2022-12-18T20:19:12.125Z,46.55
2022-12-18T20:21:38.813Z,48.80
2022-12-18T20:24:07.004Z,46.85
2022-12-18T20:26:33.849Z,46.50
2022-12-18T20:29:00.637Z,45.38
2022-12-18T20:31:27.275Z,43.65
2022-12-18T20:34:00.331Z,43.05
2022-12-18T20:36:28.384Z,43.40
2022-12-18T20:38:59.133Z,42.25
2022-12-18T20:41:35.040Z,40.80
2022-12-18T20:44:21.793Z,41.40
2022-12-18T20:46:55.520Z,40.03
2022-12-18T20:49:23.773Z,40.35
2022-12-18T20:51:52.410Z,38.53
2022-12-18T20:54:19.126Z,36.92
2022-12-18T20:56:45.678Z,37.40
2022-12-18T20:59:12.331Z,39.38
2022-12-18T21:01:45.202Z,37.15
2022-12-18T21:04:15.900Z,39.35
2022-12-18T21:06:49.428Z,38.55
2022-12-18T21:09:20.424Z,39.10
2022-12-18T21:12:05.640Z,39.58
2022-12-18T21:14:32.501Z,39.80
2022-12-18T21:17:02.055Z,38.95
2022-12-18T21:19:29.824Z,39.17
2022-12-18T21:21:57.387Z,39.88
2022-12-18T21:24:24.697Z,37.05
2022-12-18T21:26:54.127Z,40.42
2022-12-18T21:29:23.451Z,39.75
2022-12-18T21:31:52.078Z,39.15
2022-12-18T21:34:28.103Z,40.65
2022-12-18T21:36:56.494Z,39.63
2022-12-18T21:39:24.600Z,39.75
2022-12-18T21:42:10.234Z,40.35
2022-12-18T21:44:41.503Z,40.28
2022-12-18T21:49:53.089Z,38.45
2022-12-18T21:52:22.155Z,38.90
2022-12-18T21:55:06.168Z,36.03
2022-12-18T21:57:35.739Z,35.95
2022-12-18T22:00:03.114Z,35.92
2022-12-18T22:02:29.962Z,35.55
2022-12-18T22:04:56.676Z,37.50
2022-12-18T22:07:23.592Z,38.15
2022-12-18T22:09:50.139Z,36.85
2022-12-18T22:12:35.678Z,35.38
2022-12-18T22:15:06.915Z,36.55
2022-12-18T22:17:33.483Z,33.97
2022-12-18T22:20:00.039Z,36.70
2022-12-18T22:22:26.894Z,35.58
2022-12-18T22:24:53.475Z,34.58
2022-12-18T22:27:20.040Z,35.85
2022-12-18T22:30:04.876Z,34.33
2022-12-18T22:32:35.888Z,35.03
2022-12-18T22:35:09.133Z,33.83
2022-12-18T22:37:39.431Z,34.55
2022-12-18T22:40:07.346Z,34.40
2022-12-18T22:42:34.231Z,34.15
2022-12-18T22:45:00.846Z,34.00
2022-12-18T22:47:30.119Z,35.45
2022-12-18T22:49:57.625Z,34.85
2022-12-18T22:52:24.321Z,34.05
2022-12-18T22:54:53.648Z,34.88
2022-12-18T22:57:22.025Z,35.10
2022-12-18T22:59:49.702Z,35.92
2022-12-18T23:02:17.886Z,34.85
2022-12-18T23:04:45.029Z,35.45
2022-12-18T23:07:11.707Z,36.65
2022-12-18T23:09:39.613Z,36.50
2022-12-18T23:12:06.620Z,36.08
2022-12-18T23:14:33.333Z,36.35
2022-12-18T23:17:00.012Z,35.90
2022-12-18T23:19:26.841Z,35.83
2022-12-18T23:21:54.874Z,35.38
2022-12-18T23:24:25.410Z,37.33
2022-12-18T23:26:52.147Z,36.80
2022-12-18T23:29:18.702Z,35.22
2022-12-18T23:31:45.381Z,35.63
2022-12-18T23:34:13.578Z,34.65
2022-12-18T23:36:46.462Z,37.55
2022-12-18T23:39:22.379Z,37.05
2022-12-18T23:41:56.452Z,39.22
2022-12-18T23:44:23.077Z,38.00
2022-12-18T23:46:49.730Z,38.67
2022-12-18T23:49:16.301Z,38.58
2022-12-18T23:51:42.916Z,39.28
2022-12-18T23:54:10.482Z,39.08
2022-12-18T23:56:37.066Z,40.70
2022-12-18T23:59:03.616Z,39.70
